Terminal Aerodrome Forecast
Issued by NWS Twin Cities, MN

Home | Current Version | Previous Version | Graphics & Text | Print | Product List | Glossary On
Versions: 1 2 3 4 5 6 7 8 9 10 11 12 13 14 15 16 17 18 19 20 21 22 23 24 25 26
000
FTUS43 KMPX 200600 AAA
TAFEAU
TAF AMD
KEAU 200642Z 2007/2106 00000KT 4SM BR SCT003 SCT080
      TEMPO 2007/2009 1SM BR SCT002 BKN080
     FM200900 00000KT 1SM BR SCT002
      TEMPO 2009/2013 1/4SM FG BKN001
     FM201400 10005KT P6SM SCT250=

USA.gov is the U.S. government's official web portal to all federal, state and local government web resources and services.